Time;durP1;ratioP1;P1;durP2;ratioP2;P2;SDS_P1;SDS_P2;PMS_P1;PMS_P2;Temp;Humidity;BMP_temperature;BMP_pressure;BME280_temperature;BME280_humidity;BME280_pressure;Samples;Min_cycle;Max_cycle;Signal;HPM_P1;HPM_P2
2021/01/12 00:01:43;;;;;;;138.30;60.90;;;;;;;;;;5118936;27;20058;-50
2021/01/12 00:04:09;;;;;;;112.05;53.25;;;;;;;;;;5115214;27;20039;-49
2021/01/12 00:06:35;;;;;;;116.38;51.22;;;;;;;;;;5116118;27;20495;-50
2021/01/12 00:09:02;;;;;;;114.25;53.25;;;;;;;;;;5111701;27;20024;-51
2021/01/12 00:11:28;;;;;;;144.40;64.65;;;;;;;;;;5114206;27;20024;-49
2021/01/12 00:13:54;;;;;;;168.65;76.35;;;;;;;;;;5121830;27;20034;-50
2021/01/12 00:16:20;;;;;;;124.07;57.83;;;;;;;;;;5124147;27;20031;-49
2021/01/12 00:18:47;;;;;;;171.35;78.10;;;;;;;;;;5115253;27;20023;-50
2021/01/12 00:21:13;;;;;;;113.25;53.15;;;;;;;;;;5131684;27;20093;-51
2021/01/12 00:23:40;;;;;;;124.63;56.40;;;;;;;;;;5145513;27;20038;-49
2021/01/12 00:26:07;;;;;;;140.00;66.72;;;;;;;;;;5120426;27;20040;-50
2021/01/12 00:28:33;;;;;;;173.93;78.40;;;;;;;;;;5119516;27;20027;-50
2021/01/12 00:31:02;;;;;;;149.75;70.57;;;;;;;;;;5121388;27;20024;-49
2021/01/12 00:33:28;;;;;;;125.38;59.70;;;;;;;;;;5122953;27;20038;-49
2021/01/12 00:35:54;;;;;;;101.60;51.35;;;;;;;;;;5113692;27;20032;-50
2021/01/12 00:38:20;;;;;;;128.80;60.70;;;;;;;;;;5121139;27;20415;-51
2021/01/12 00:40:46;;;;;;;116.65;56.88;;;;;;;;;;5121874;27;20028;-49
2021/01/12 00:43:12;;;;;;;103.40;50.95;;;;;;;;;;5129942;27;20030;-51
2021/01/12 00:45:38;;;;;;;141.10;67.60;;;;;;;;;;5144379;27;20492;-50
2021/01/12 00:48:05;;;;;;;142.77;68.38;;;;;;;;;;5145729;27;20389;-50
2021/01/12 00:50:31;;;;;;;146.32;69.22;;;;;;;;;;5140311;27;20051;-50
2021/01/12 00:52:57;;;;;;;109.72;53.67;;;;;;;;;;5140583;27;20020;-50
2021/01/12 00:55:23;;;;;;;209.13;97.10;;;;;;;;;;5136857;27;20047;-51
2021/01/12 00:57:49;;;;;;;132.90;63.17;;;;;;;;;;5129491;27;20016;-51
2021/01/12 01:00:15;;;;;;;148.35;67.30;;;;;;;;;;5108753;27;20401;-50
2021/01/12 01:02:41;;;;;;;151.82;70.72;;;;;;;;;;5129946;27;20355;-50
2021/01/12 01:05:08;;;;;;;146.40;67.53;;;;;;;;;;5115457;28;20050;-50
2021/01/12 01:07:34;;;;;;;146.23;70.43;;;;;;;;;;5118208;27;20094;-50
2021/01/12 01:10:00;;;;;;;111.15;53.53;;;;;;;;;;5135739;27;20570;-48
2021/01/12 01:12:26;;;;;;;114.55;55.15;;;;;;;;;;5135491;27;20063;-50
2021/01/12 01:14:52;;;;;;;110.65;54.05;;;;;;;;;;5135099;27;20370;-50
2021/01/12 01:17:18;;;;;;;104.32;51.47;;;;;;;;;;5122526;27;20098;-50
2021/01/12 01:19:44;;;;;;;133.85;65.50;;;;;;;;;;5115069;28;20027;-50
2021/01/12 01:22:10;;;;;;;110.97;56.05;;;;;;;;;;5115150;28;20073;-50
2021/01/12 01:24:36;;;;;;;107.85;54.03;;;;;;;;;;5121942;27;20077;-50
2021/01/12 01:27:02;;;;;;;149.32;74.57;;;;;;;;;;5128497;27;20573;-50
2021/01/12 01:29:28;;;;;;;129.77;65.38;;;;;;;;;;5123944;27;20425;-50
2021/01/12 01:31:54;;;;;;;128.57;64.90;;;;;;;;;;5134053;27;20023;-51
2021/01/12 01:34:21;;;;;;;106.88;53.42;;;;;;;;;;5114832;28;20049;-51
2021/01/12 01:36:47;;;;;;;116.00;58.20;;;;;;;;;;5127722;27;20039;-50
2021/01/12 01:39:13;;;;;;;111.85;56.97;;;;;;;;;;5135366;27;20020;-50
2021/01/12 01:41:39;;;;;;;109.25;54.10;;;;;;;;;;5134765;27;20428;-50
2021/01/12 01:44:06;;;;;;;98.40;49.08;;;;;;;;;;5131073;27;20471;-50
2021/01/12 01:46:32;;;;;;;92.68;47.25;;;;;;;;;;5126024;27;20038;-49
2021/01/12 01:48:58;;;;;;;101.65;51.70;;;;;;;;;;5133457;27;20035;-50
2021/01/12 01:51:25;;;;;;;98.93;48.67;;;;;;;;;;5113449;28;20118;-50
2021/01/12 01:53:52;;;;;;;110.13;54.17;;;;;;;;;;5127179;27;20031;-50
2021/01/12 01:56:18;;;;;;;116.88;57.70;;;;;;;;;;5112823;27;20040;-49
2021/01/12 01:58:44;;;;;;;101.05;50.70;;;;;;;;;;5104583;28;20490;-51
2021/01/12 02:01:10;;;;;;;102.53;50.90;;;;;;;;;;5098669;28;20039;-49
2021/01/12 02:03:46;;;;;;;85.55;43.55;;;;;;;;;;5098092;27;20027;-50
2021/01/12 02:06:19;;;;;;;111.38;53.67;;;;;;;;;;5101191;27;20093;-48
2021/01/12 02:08:45;;;;;;;95.88;48.22;;;;;;;;;;5097372;27;20027;-50
2021/01/12 02:11:12;;;;;;;95.50;47.20;;;;;;;;;;5099957;27;20075;-50
2021/01/12 02:13:39;;;;;;;94.93;46.42;;;;;;;;;;5097866;27;20583;-49
2021/01/12 02:16:05;;;;;;;92.40;46.75;;;;;;;;;;5093731;27;20475;-50
2021/01/12 02:18:34;;;;;;;90.72;46.22;;;;;;;;;;5094240;28;20070;-50
2021/01/12 02:21:04;;;;;;;90.63;46.45;;;;;;;;;;5097414;27;20020;-50
2021/01/12 02:23:33;;;;;;;88.57;45.08;;;;;;;;;;5104709;28;20036;-48
2021/01/12 02:26:00;;;;;;;88.25;45.17;;;;;;;;;;5101495;28;20483;-50
2021/01/12 02:28:26;;;;;;;91.75;46.70;;;;;;;;;;5096874;27;20088;-50
2021/01/12 02:30:52;;;;;;;87.88;45.25;;;;;;;;;;5094843;27;20052;-49
2021/01/12 02:33:18;;;;;;;89.03;46.30;;;;;;;;;;5095307;27;20021;-49
2021/01/12 02:35:46;;;;;;;87.80;44.63;;;;;;;;;;5096695;27;20028;-50
2021/01/12 02:38:12;;;;;;;87.00;44.90;;;;;;;;;;5093370;27;20023;-50
2021/01/12 02:40:38;;;;;;;87.20;45.58;;;;;;;;;;5100058;27;20031;-49
2021/01/12 02:43:05;;;;;;;90.15;46.75;;;;;;;;;;5096901;27;20505;-50
2021/01/12 02:45:31;;;;;;;88.65;45.08;;;;;;;;;;5094132;27;20027;-48
2021/01/12 02:47:57;;;;;;;87.88;44.50;;;;;;;;;;5101639;27;20028;-50
2021/01/12 02:50:23;;;;;;;91.28;48.75;;;;;;;;;;5097618;27;20026;-50
2021/01/12 02:52:49;;;;;;;101.35;50.70;;;;;;;;;;5108008;27;20102;-50
2021/01/12 02:55:15;;;;;;;86.10;44.00;;;;;;;;;;5102508;27;20055;-50
2021/01/12 02:57:42;;;;;;;90.18;47.75;;;;;;;;;;5134766;27;20359;-50
2021/01/12 03:00:09;;;;;;;87.80;45.75;;;;;;;;;;5103418;27;20055;-50
2021/01/12 03:02:35;;;;;;;83.78;44.85;;;;;;;;;;5129501;27;20026;-50
2021/01/12 03:05:01;;;;;;;87.68;46.13;;;;;;;;;;5125527;27;20019;-49
2021/01/12 03:07:27;;;;;;;81.03;42.13;;;;;;;;;;5122411;27;20031;-50
2021/01/12 03:09:53;;;;;;;93.57;50.53;;;;;;;;;;5124026;27;20030;-49
2021/01/12 03:12:19;;;;;;;91.03;48.47;;;;;;;;;;5124265;27;20055;-49
2021/01/12 03:14:46;;;;;;;89.63;45.95;;;;;;;;;;5109108;27;20070;-50
2021/01/12 03:17:13;;;;;;;87.55;46.13;;;;;;;;;;5123340;27;20101;-48
2021/01/12 03:19:39;;;;;;;90.25;47.70;;;;;;;;;;5131272;27;20019;-50
2021/01/12 03:22:05;;;;;;;88.97;46.15;;;;;;;;;;5122846;27;20023;-50
2021/01/12 03:24:31;;;;;;;88.25;46.80;;;;;;;;;;5123858;27;20027;-50
2021/01/12 03:26:57;;;;;;;98.72;50.63;;;;;;;;;;5120802;27;20031;-50
2021/01/12 03:29:23;;;;;;;94.00;50.17;;;;;;;;;;5133297;27;20471;-50
2021/01/12 03:31:49;;;;;;;102.97;53.58;;;;;;;;;;5133598;27;20027;-49
2021/01/12 03:34:16;;;;;;;113.82;58.33;;;;;;;;;;5133304;27;20023;-50
2021/01/12 03:36:42;;;;;;;116.45;57.25;;;;;;;;;;5133037;27;20030;-49
2021/01/12 03:39:08;;;;;;;121.50;61.75;;;;;;;;;;5133254;27;20027;-50
2021/01/12 03:41:34;;;;;;;121.72;60.95;;;;;;;;;;5095027;28;20469;-50
2021/01/12 03:44:01;;;;;;;103.55;53.33;;;;;;;;;;5122858;27;20426;-50
2021/01/12 03:46:27;;;;;;;96.32;48.13;;;;;;;;;;5112638;28;20031;-50
2021/01/12 03:48:54;;;;;;;93.70;46.83;;;;;;;;;;5119854;27;20027;-50
2021/01/12 03:51:21;;;;;;;89.15;44.53;;;;;;;;;;5119586;27;20054;-50
2021/01/12 03:53:47;;;;;;;90.53;44.72;;;;;;;;;;5132550;27;20030;-49
2021/01/12 03:56:13;;;;;;;85.30;43.60;;;;;;;;;;5119813;27;20139;-50
2021/01/12 03:58:42;;;;;;;93.70;45.25;;;;;;;;;;5118924;28;20019;-50
2021/01/12 04:01:09;;;;;;;94.25;47.10;;;;;;;;;;5143412;27;20046;-50
2021/01/12 04:03:35;;;;;;;103.00;51.60;;;;;;;;;;5148572;27;20034;-50
2021/01/12 04:06:02;;;;;;;147.73;75.63;;;;;;;;;;5145600;27;20079;-50
2021/01/12 04:08:28;;;;;;;137.68;70.35;;;;;;;;;;5144000;27;20023;-50
2021/01/12 04:10:55;;;;;;;95.88;48.92;;;;;;;;;;5145949;27;20023;-49
2021/01/12 04:13:21;;;;;;;93.00;46.55;;;;;;;;;;5153915;27;20038;-50
2021/01/12 04:15:47;;;;;;;93.45;47.50;;;;;;;;;;5135084;27;20110;-50
2021/01/12 04:18:13;;;;;;;91.15;46.45;;;;;;;;;;5135487;27;20116;-50
2021/01/12 04:20:39;;;;;;;98.32;50.20;;;;;;;;;;5136883;27;20034;-50
2021/01/12 04:23:05;;;;;;;94.63;49.65;;;;;;;;;;5136932;27;20090;-50
2021/01/12 04:25:35;;;;;;;102.53;49.85;;;;;;;;;;5135446;27;20035;-50
2021/01/12 04:28:01;;;;;;;117.55;54.38;;;;;;;;;;5123261;27;20034;-48
2021/01/12 04:30:27;;;;;;;123.32;55.33;;;;;;;;;;5129412;27;21395;-48
2021/01/12 04:32:53;;;;;;;116.03;54.15;;;;;;;;;;5135789;27;20020;-50
2021/01/12 04:35:19;;;;;;;107.13;50.63;;;;;;;;;;5124277;27;20028;-50
2021/01/12 04:37:45;;;;;;;112.55;52.63;;;;;;;;;;5134581;27;20029;-50
2021/01/12 04:40:11;;;;;;;110.28;53.67;;;;;;;;;;5136429;27;20031;-50
2021/01/12 04:42:37;;;;;;;156.05;70.22;;;;;;;;;;5128207;27;20035;-50
2021/01/12 04:45:05;;;;;;;139.85;68.63;;;;;;;;;;5135867;27;20035;-50
2021/01/12 04:47:31;;;;;;;148.63;71.43;;;;;;;;;;5121640;27;20102;-50
2021/01/12 04:49:57;;;;;;;182.40;90.22;;;;;;;;;;5133903;27;20024;-50
2021/01/12 04:52:23;;;;;;;162.23;76.78;;;;;;;;;;5136510;27;20031;-50
2021/01/12 04:54:51;;;;;;;147.63;69.68;;;;;;;;;;5133088;27;20042;-50
2021/01/12 04:57:17;;;;;;;101.70;48.28;;;;;;;;;;5115985;28;20027;-50
2021/01/12 04:59:44;;;;;;;97.63;46.42;;;;;;;;;;5118507;27;20059;-50
2021/01/12 05:02:13;;;;;;;96.15;46.25;;;;;;;;;;5115568;28;20024;-50
2021/01/12 05:04:42;;;;;;;99.03;47.80;;;;;;;;;;5115406;28;20035;-51
2021/01/12 05:07:09;;;;;;;99.30;48.38;;;;;;;;;;5115086;28;20052;-50
2021/01/12 05:09:35;;;;;;;109.18;51.88;;;;;;;;;;5139286;27;20029;-50
2021/01/12 05:12:03;;;;;;;100.10;47.83;;;;;;;;;;5126264;27;20478;-51
2021/01/12 05:14:30;;;;;;;92.50;45.45;;;;;;;;;;5136102;27;20023;-49
2021/01/12 05:16:56;;;;;;;117.32;53.95;;;;;;;;;;5133021;27;20034;-49
2021/01/12 05:19:24;;;;;;;110.05;52.47;;;;;;;;;;5137199;27;20102;-50
2021/01/12 05:21:51;;;;;;;111.13;52.25;;;;;;;;;;5134576;27;20019;-50
2021/01/12 05:24:18;;;;;;;106.93;50.58;;;;;;;;;;5133251;27;20110;-49
2021/01/12 05:26:44;;;;;;;100.32;49.22;;;;;;;;;;5121028;27;20019;-50
2021/01/12 05:29:10;;;;;;;95.65;47.60;;;;;;;;;;5122484;27;20502;-50
2021/01/12 05:31:37;;;;;;;98.72;47.40;;;;;;;;;;5115312;28;20061;-48
2021/01/12 05:34:04;;;;;;;101.55;48.90;;;;;;;;;;5120514;27;20027;-50
2021/01/12 05:36:31;;;;;;;99.78;48.90;;;;;;;;;;5133242;27;20541;-50
2021/01/12 05:39:00;;;;;;;119.80;59.45;;;;;;;;;;5122222;27;20035;-50
2021/01/12 05:41:27;;;;;;;117.22;55.40;;;;;;;;;;5123820;27;20027;-50
2021/01/12 05:43:56;;;;;;;141.80;66.45;;;;;;;;;;5123131;27;20051;-50
2021/01/12 05:46:22;;;;;;;150.88;72.63;;;;;;;;;;5141464;27;20034;-50
2021/01/12 05:48:48;;;;;;;133.30;63.47;;;;;;;;;;5127351;27;20019;-50
2021/01/12 05:51:15;;;;;;;133.00;62.17;;;;;;;;;;5131579;27;20414;-49
2021/01/12 05:53:48;;;;;;;129.82;60.95;;;;;;;;;;5135338;27;20015;-49
2021/01/12 05:56:17;;;;;;;129.52;60.58;;;;;;;;;;5130204;27;20104;-50
2021/01/12 05:58:48;;;;;;;126.50;59.13;;;;;;;;;;5134524;27;20019;-49
2021/01/12 06:01:17;;;;;;;132.35;62.83;;;;;;;;;;5134668;27;20117;-50
2021/01/12 06:03:44;;;;;;;132.80;61.78;;;;;;;;;;5126826;27;20078;-50
2021/01/12 06:06:10;;;;;;;149.15;67.57;;;;;;;;;;5132026;27;20481;-50
2021/01/12 06:08:36;;;;;;;156.63;74.45;;;;;;;;;;5133898;27;20037;-50
2021/01/12 06:11:07;;;;;;;172.75;83.45;;;;;;;;;;5134285;27;20084;-50
2021/01/12 06:13:35;;;;;;;134.55;64.85;;;;;;;;;;5133577;27;20035;-50
2021/01/12 06:16:05;;;;;;;140.60;64.88;;;;;;;;;;5134462;27;20088;-50
2021/01/12 06:18:33;;;;;;;163.77;80.68;;;;;;;;;;5123788;27;20523;-50
2021/01/12 06:21:17;;;;;;;251.88;129.63;;;;;;;;;;5117739;27;20046;-49
2021/01/12 06:23:53;;;;;;;157.70;75.68;;;;;;;;;;5127691;27;20080;-50
2021/01/12 06:26:19;;;;;;;145.40;70.10;;;;;;;;;;5128312;27;20023;-51
2021/01/12 06:28:46;;;;;;;137.20;63.72;;;;;;;;;;5134471;27;20110;-51
2021/01/12 06:31:12;;;;;;;143.52;71.07;;;;;;;;;;5134340;27;20026;-50
2021/01/12 06:33:38;;;;;;;145.63;75.47;;;;;;;;;;5130527;27;20027;-50
2021/01/12 06:36:06;;;;;;;140.50;70.85;;;;;;;;;;5123143;27;20029;-50
2021/01/12 06:38:36;;;;;;;131.90;68.35;;;;;;;;;;5134066;27;20079;-50
2021/01/12 06:41:03;;;;;;;141.25;71.38;;;;;;;;;;5134345;27;20030;-50
2021/01/12 06:43:29;;;;;;;145.95;72.68;;;;;;;;;;5134149;27;20015;-50
2021/01/12 06:45:55;;;;;;;143.77;71.03;;;;;;;;;;5134164;27;20411;-51
2021/01/12 06:48:22;;;;;;;145.25;73.13;;;;;;;;;;5134185;27;20050;-50
2021/01/12 06:50:48;;;;;;;144.68;71.85;;;;;;;;;;5129136;27;20024;-50
2021/01/12 06:53:17;;;;;;;154.23;73.03;;;;;;;;;;5124329;27;20490;-51
2021/01/12 06:55:43;;;;;;;148.13;73.15;;;;;;;;;;5133487;27;20062;-51
2021/01/12 06:58:12;;;;;;;126.00;60.28;;;;;;;;;;5133966;27;20027;-50
2021/01/12 07:00:38;;;;;;;176.82;90.32;;;;;;;;;;5133761;27;20023;-51
2021/01/12 07:03:05;;;;;;;143.20;70.47;;;;;;;;;;5134256;27;20047;-50
2021/01/12 07:05:47;;;;;;;147.02;70.72;;;;;;;;;;5134223;27;20019;-50
2021/01/12 07:08:13;;;;;;;147.18;70.43;;;;;;;;;;5121529;27;20068;-50
2021/01/12 07:10:41;;;;;;;166.77;77.90;;;;;;;;;;5133880;27;20023;-50
2021/01/12 07:13:07;;;;;;;164.25;82.65;;;;;;;;;;5133905;27;20015;-50
2021/01/12 07:15:41;;;;;;;311.10;155.30;;;;;;;;;;5133574;27;20035;-50
2021/01/12 07:18:07;;;;;;;143.32;69.72;;;;;;;;;;5133436;27;20019;-50
2021/01/12 07:20:36;;;;;;;159.82;76.45;;;;;;;;;;5133588;27;20125;-51
2021/01/12 07:23:08;;;;;;;184.98;90.68;;;;;;;;;;5133158;27;20046;-50
2021/01/12 07:25:34;;;;;;;187.82;95.28;;;;;;;;;;5123283;27;20096;-48
2021/01/12 07:28:00;;;;;;;178.35;90.40;;;;;;;;;;5129022;27;20466;-50
2021/01/12 07:30:27;;;;;;;149.02;74.45;;;;;;;;;;5133360;27;20478;-48
2021/01/12 07:33:01;;;;;;;150.15;73.85;;;;;;;;;;5133338;27;20027;-50
2021/01/12 07:35:28;;;;;;;151.00;73.55;;;;;;;;;;5119657;27;20091;-50
2021/01/12 07:37:54;;;;;;;147.90;71.72;;;;;;;;;;5133119;27;20031;-50
2021/01/12 07:40:20;;;;;;;163.30;79.72;;;;;;;;;;5133483;27;20026;-50
2021/01/12 07:42:51;;;;;;;194.68;94.97;;;;;;;;;;5133115;27;20046;-50
2021/01/12 07:45:18;;;;;;;148.18;75.38;;;;;;;;;;5133163;27;20015;-50
2021/01/12 07:47:44;;;;;;;154.30;75.85;;;;;;;;;;5132970;27;20011;-50
2021/01/12 07:50:11;;;;;;;181.02;90.10;;;;;;;;;;5133063;27;20478;-50
2021/01/12 07:52:37;;;;;;;192.48;98.18;;;;;;;;;;5132821;27;20031;-50
2021/01/12 07:55:03;;;;;;;571.80;235.98;;;;;;;;;;5132231;27;20116;-51
2021/01/12 07:57:30;;;;;;;389.10;159.93;;;;;;;;;;5133252;27;20039;-51
2021/01/12 07:59:56;;;;;;;263.08;119.03;;;;;;;;;;5132717;27;20039;-50
2021/01/12 08:02:25;;;;;;;254.77;116.68;;;;;;;;;;5133103;28;20064;-50
2021/01/12 08:04:52;;;;;;;190.82;95.57;;;;;;;;;;5132729;27;20019;-50
2021/01/12 08:07:21;;;;;;;168.93;86.82;;;;;;;;;;5132399;28;20030;-50
2021/01/12 08:09:51;;;;;;;161.07;84.75;;;;;;;;;;5133100;27;20046;-50
2021/01/12 08:12:17;;;;;;;150.20;78.47;;;;;;;;;;5123893;28;20073;-50
2021/01/12 08:14:43;;;;;;;150.23;75.47;;;;;;;;;;5111940;28;20048;-50
2021/01/12 08:17:10;;;;;;;162.65;85.22;;;;;;;;;;5111909;28;20065;-50
2021/01/12 08:19:37;;;;;;;127.03;63.17;;;;;;;;;;5132580;27;20015;-50
2021/01/12 08:22:03;;;;;;;153.15;78.55;;;;;;;;;;5118046;28;20462;-51
2021/01/12 08:24:31;;;;;;;151.63;78.47;;;;;;;;;;5132629;28;20120;-50
2021/01/12 08:26:57;;;;;;;143.52;72.00;;;;;;;;;;5132823;28;20019;-50
2021/01/12 08:29:24;;;;;;;166.23;87.93;;;;;;;;;;5122851;28;20032;-50
2021/01/12 08:32:02;;;;;;;275.73;147.35;;;;;;;;;;5128292;28;20045;-50
2021/01/12 08:34:30;;;;;;;215.32;116.15;;;;;;;;;;5132822;28;20042;-50
2021/01/12 08:36:59;;;;;;;231.00;121.88;;;;;;;;;;5132500;28;20035;-51
2021/01/12 08:39:26;;;;;;;211.80;113.25;;;;;;;;;;5132704;28;20102;-51
2021/01/12 08:41:54;;;;;;;168.02;86.75;;;;;;;;;;5132548;28;20466;-50
2021/01/12 08:44:23;;;;;;;147.70;76.75;;;;;;;;;;5132689;28;20031;-50
2021/01/12 08:46:49;;;;;;;145.77;72.80;;;;;;;;;;5119812;28;20077;-50
2021/01/12 08:49:15;;;;;;;134.63;66.30;;;;;;;;;;5130607;28;20094;-50
2021/01/12 08:51:41;;;;;;;168.80;84.85;;;;;;;;;;5132181;28;20031;-50
2021/01/12 08:54:07;;;;;;;153.98;80.72;;;;;;;;;;5132042;27;20109;-50
2021/01/12 08:56:33;;;;;;;157.93;79.00;;;;;;;;;;5104503;28;20147;-51
2021/01/12 08:59:09;;;;;;;162.25;78.90;;;;;;;;;;5093705;28;20024;-50
2021/01/12 09:01:37;;;;;;;230.55;108.45;;;;;;;;;;5095584;28;20044;-51
2021/01/12 09:04:10;;;;;;;220.35;109.43;;;;;;;;;;5095274;28;20016;-50
2021/01/12 09:06:36;;;;;;;188.55;94.63;;;;;;;;;;5095584;28;20016;-51
2021/01/12 09:09:06;;;;;;;130.75;64.53;;;;;;;;;;5094852;28;20514;-51
2021/01/12 09:11:35;;;;;;;140.43;68.00;;;;;;;;;;5094745;28;20047;-50
2021/01/12 09:14:05;;;;;;;156.82;80.07;;;;;;;;;;5095199;28;20372;-50
2021/01/12 09:16:32;;;;;;;170.88;81.55;;;;;;;;;;5095161;28;20122;-50
2021/01/12 09:18:58;;;;;;;141.55;69.85;;;;;;;;;;5095031;28;20024;-48
2021/01/12 09:21:24;;;;;;;172.50;96.95;;;;;;;;;;5094765;28;20518;-51
2021/01/12 09:23:50;;;;;;;211.98;106.90;;;;;;;;;;5094917;28;20154;-50
2021/01/12 09:26:19;;;;;;;164.20;83.60;;;;;;;;;;5095005;28;20035;-50
2021/01/12 09:28:45;;;;;;;142.77;73.32;;;;;;;;;;5095059;28;20619;-50
2021/01/12 09:31:13;;;;;;;134.63;67.20;;;;;;;;;;5095028;28;20047;-51
2021/01/12 09:33:44;;;;;;;142.80;72.50;;;;;;;;;;5117093;27;20019;-50
2021/01/12 09:36:11;;;;;;;158.45;82.47;;;;;;;;;;5106495;27;20085;-50
2021/01/12 09:38:41;;;;;;;158.25;82.50;;;;;;;;;;5119347;27;20029;-51
2021/01/12 09:41:07;;;;;;;137.07;69.03;;;;;;;;;;5103487;27;20069;-50
2021/01/12 09:43:34;;;;;;;146.55;75.22;;;;;;;;;;5108395;27;20070;-51
2021/01/12 09:46:00;;;;;;;142.45;71.85;;;;;;;;;;5106733;27;20020;-51
2021/01/12 09:48:26;;;;;;;119.18;57.85;;;;;;;;;;5103876;27;20430;-50
2021/01/12 09:50:52;;;;;;;114.57;56.90;;;;;;;;;;5110531;27;20019;-50
2021/01/12 09:53:19;;;;;;;124.80;61.42;;;;;;;;;;5103455;27;20024;-50
2021/01/12 09:55:45;;;;;;;122.75;59.28;;;;;;;;;;5123407;27;20370;-51
2021/01/12 09:58:11;;;;;;;156.88;79.78;;;;;;;;;;5123553;27;20031;-51
2021/01/12 10:00:37;;;;;;;155.77;79.25;;;;;;;;;;5128871;27;20492;-50
2021/01/12 10:03:06;;;;;;;154.75;79.72;;;;;;;;;;5126243;27;20058;-51
2021/01/12 10:05:36;;;;;;;152.95;79.70;;;;;;;;;;5125833;27;20129;-50
2021/01/12 10:08:02;;;;;;;165.05;84.18;;;;;;;;;;5127724;27;20035;-48
2021/01/12 10:10:29;;;;;;;199.30;96.70;;;;;;;;;;5122524;27;20355;-49
2021/01/12 10:12:55;;;;;;;304.70;139.98;;;;;;;;;;5132971;27;20365;-50
2021/01/12 10:15:21;;;;;;;162.93;86.93;;;;;;;;;;5122438;27;20490;-49
2021/01/12 10:17:47;;;;;;;236.07;119.93;;;;;;;;;;5131170;27;20739;-50
2021/01/12 10:20:13;;;;;;;171.50;91.20;;;;;;;;;;5122176;27;20522;-49
2021/01/12 10:22:39;;;;;;;204.52;104.40;;;;;;;;;;5125803;27;20027;-49
2021/01/12 10:25:05;;;;;;;166.18;87.35;;;;;;;;;;5135982;27;20113;-51
2021/01/12 10:27:36;;;;;;;147.05;76.13;;;;;;;;;;5150489;27;20040;-51
2021/01/12 10:30:03;;;;;;;154.43;81.28;;;;;;;;;;5144370;27;20101;-50
2021/01/12 10:32:29;;;;;;;147.48;78.03;;;;;;;;;;5149651;27;20058;-50
2021/01/12 10:34:55;;;;;;;177.77;94.95;;;;;;;;;;5143033;27;20109;-49
2021/01/12 10:37:21;;;;;;;165.13;87.97;;;;;;;;;;5133764;27;20027;-51
2021/01/12 10:39:47;;;;;;;156.02;86.15;;;;;;;;;;5120774;27;20026;-51
2021/01/12 10:42:14;;;;;;;152.07;80.05;;;;;;;;;;5136377;27;20026;-51
2021/01/12 10:44:40;;;;;;;135.88;67.88;;;;;;;;;;5153209;27;20023;-51
2021/01/12 10:47:06;;;;;;;117.03;57.00;;;;;;;;;;5151162;27;20023;-51
2021/01/12 10:49:32;;;;;;;123.22;60.22;;;;;;;;;;5153403;27;20054;-50
2021/01/12 10:51:59;;;;;;;162.60;87.85;;;;;;;;;;5151152;27;20382;-50
2021/01/12 10:54:26;;;;;;;165.93;86.13;;;;;;;;;;5152758;27;20061;-51
2021/01/12 10:56:52;;;;;;;311.17;150.23;;;;;;;;;;5151603;27;20027;-50
2021/01/12 10:59:18;;;;;;;167.40;87.07;;;;;;;;;;5125213;27;20047;-51
2021/01/12 11:01:44;;;;;;;154.65;79.90;;;;;;;;;;5137149;27;20015;-50
2021/01/12 11:04:10;;;;;;;156.85;76.80;;;;;;;;;;5137621;27;20058;-50
2021/01/12 11:06:37;;;;;;;152.98;75.70;;;;;;;;;;5136393;27;20027;-50
2021/01/12 11:09:04;;;;;;;142.57;72.60;;;;;;;;;;5130324;27;20378;-48
2021/01/12 11:11:34;;;;;;;170.85;86.30;;;;;;;;;;5130081;27;20056;-49
2021/01/12 11:14:06;;;;;;;161.00;83.75;;;;;;;;;;5137256;27;20144;-50
2021/01/12 11:16:35;;;;;;;139.07;72.53;;;;;;;;;;5130941;27;20030;-49
2021/01/12 11:19:01;;;;;;;145.05;74.93;;;;;;;;;;5124602;27;20027;-51
2021/01/12 11:21:27;;;;;;;138.23;70.28;;;;;;;;;;5127540;27;20033;-50
2021/01/12 11:23:53;;;;;;;137.50;72.15;;;;;;;;;;5120103;27;20044;-50
2021/01/12 11:26:27;;;;;;;133.75;68.32;;;;;;;;;;5132135;27;20023;-50
2021/01/12 11:28:53;;;;;;;136.35;69.10;;;;;;;;;;5138701;27;20029;-50
2021/01/12 11:31:19;;;;;;;130.95;68.60;;;;;;;;;;5137583;27;20062;-51
2021/01/12 11:33:45;;;;;;;134.55;71.32;;;;;;;;;;5116646;27;20046;-50
2021/01/12 11:36:12;;;;;;;137.32;70.25;;;;;;;;;;5118254;27;20053;-48
2021/01/12 11:38:38;;;;;;;134.40;68.93;;;;;;;;;;5112341;27;20019;-50
2021/01/12 11:41:04;;;;;;;173.15;90.78;;;;;;;;;;5114710;27;20039;-50
2021/01/12 11:43:30;;;;;;;149.63;77.70;;;;;;;;;;5114602;27;20026;-50
2021/01/12 11:45:56;;;;;;;136.13;74.22;;;;;;;;;;5131179;27;20456;-51
2021/01/12 11:48:22;;;;;;;152.90;80.78;;;;;;;;;;5132833;27;20020;-49
2021/01/12 11:50:48;;;;;;;164.18;84.80;;;;;;;;;;5135246;27;20061;-50
2021/01/12 11:53:14;;;;;;;141.10;75.05;;;;;;;;;;5121400;27;20083;-51
2021/01/12 11:55:41;;;;;;;132.77;70.95;;;;;;;;;;5134339;27;20050;-50
2021/01/12 11:58:07;;;;;;;146.27;72.70;;;;;;;;;;5134419;27;20039;-49
2021/01/12 12:00:33;;;;;;;153.90;78.32;;;;;;;;;;5116196;27;20599;-48
2021/01/12 12:02:59;;;;;;;160.57;81.78;;;;;;;;;;5122692;27;20370;-50
2021/01/12 12:05:25;;;;;;;161.02;83.15;;;;;;;;;;5115460;27;20024;-49
2021/01/12 12:07:51;;;;;;;139.05;71.20;;;;;;;;;;5116066;27;20027;-50
2021/01/12 12:10:18;;;;;;;179.13;88.32;;;;;;;;;;5115924;27;20028;-50
2021/01/12 12:12:44;;;;;;;145.35;73.60;;;;;;;;;;5116137;27;20538;-50
2021/01/12 12:15:11;;;;;;;142.57;73.88;;;;;;;;;;5116306;27;20031;-49
2021/01/12 12:17:37;;;;;;;110.65;56.92;;;;;;;;;;5114951;27;20023;-49
2021/01/12 12:20:04;;;;;;;194.82;104.20;;;;;;;;;;5117716;27;20065;-51
2021/01/12 12:22:30;;;;;;;144.27;76.90;;;;;;;;;;5113002;27;20028;-51
2021/01/12 12:24:56;;;;;;;161.85;82.03;;;;;;;;;;5113480;27;20121;-51
2021/01/12 12:27:24;;;;;;;134.15;67.70;;;;;;;;;;5111306;27;20099;-49
2021/01/12 12:29:50;;;;;;;125.28;63.92;;;;;;;;;;5125824;27;20016;-51
2021/01/12 12:32:16;;;;;;;131.23;65.82;;;;;;;;;;5118046;27;20055;-51
2021/01/12 12:34:42;;;;;;;156.88;80.30;;;;;;;;;;5136346;27;20057;-49
2021/01/12 12:37:11;;;;;;;169.63;85.30;;;;;;;;;;5114449;27;20051;-49
2021/01/12 12:39:38;;;;;;;152.48;81.25;;;;;;;;;;5137357;27;20022;-50
2021/01/12 12:42:04;;;;;;;140.95;69.85;;;;;;;;;;5130647;27;20023;-51
2021/01/12 12:44:32;;;;;;;140.85;71.28;;;;;;;;;;5135867;27;20068;-50
2021/01/12 12:46:58;;;;;;;147.20;75.95;;;;;;;;;;5137550;27;20489;-50
2021/01/12 12:49:25;;;;;;;148.00;77.30;;;;;;;;;;5155649;27;20057;-51
2021/01/12 12:51:51;;;;;;;121.25;61.65;;;;;;;;;;5153905;27;20098;-49
2021/01/12 12:54:19;;;;;;;115.22;58.78;;;;;;;;;;5155332;27;20566;-51
2021/01/12 12:56:45;;;;;;;132.90;70.07;;;;;;;;;;5155084;27;20550;-48
2021/01/12 12:59:11;;;;;;;134.23;67.85;;;;;;;;;;5153221;27;20412;-51
2021/01/12 13:01:37;;;;;;;138.70;72.18;;;;;;;;;;5151409;27;20488;-50
2021/01/12 13:04:04;;;;;;;134.75;68.15;;;;;;;;;;5119124;27;20541;-49
2021/01/12 13:06:30;;;;;;;163.00;84.90;;;;;;;;;;5122943;27;20057;-49
2021/01/12 13:08:56;;;;;;;158.45;88.57;;;;;;;;;;5136840;27;20505;-51
2021/01/12 13:11:22;;;;;;;146.20;80.15;;;;;;;;;;5142286;27;20163;-50
2021/01/12 13:13:49;;;;;;;116.18;59.33;;;;;;;;;;5148705;27;20052;-49
2021/01/12 13:16:15;;;;;;;130.10;69.50;;;;;;;;;;5128248;27;20470;-49
2021/01/12 13:18:45;;;;;;;140.65;75.50;;;;;;;;;;5134602;27;20027;-48
2021/01/12 13:21:11;;;;;;;133.32;68.18;;;;;;;;;;5145218;27;20022;-49
2021/01/12 13:23:37;;;;;;;147.93;77.28;;;;;;;;;;5144040;27;20095;-50
2021/01/12 13:26:04;;;;;;;200.20;108.43;;;;;;;;;;5128599;27;20023;-48
2021/01/12 13:28:32;;;;;;;185.93;101.43;;;;;;;;;;5139317;27;20038;-50
2021/01/12 13:30:58;;;;;;;183.02;101.28;;;;;;;;;;5139408;27;20023;-50
2021/01/12 13:33:24;;;;;;;165.20;89.13;;;;;;;;;;5135516;27;20092;-49
2021/01/12 13:35:50;;;;;;;182.07;101.35;;;;;;;;;;5135094;27;20106;-49
2021/01/12 13:38:16;;;;;;;190.20;101.40;;;;;;;;;;5130742;27;20059;-49
2021/01/12 13:40:42;;;;;;;155.80;84.53;;;;;;;;;;5133949;27;20019;-50
2021/01/12 13:43:08;;;;;;;152.73;79.57;;;;;;;;;;5118666;27;20024;-50
2021/01/12 13:45:34;;;;;;;187.77;97.25;;;;;;;;;;5117992;27;20433;-51
2021/01/12 13:48:01;;;;;;;185.48;97.47;;;;;;;;;;5133529;27;20099;-49
2021/01/12 13:50:27;;;;;;;177.82;92.43;;;;;;;;;;5133786;27;20038;-50
2021/01/12 13:52:54;;;;;;;155.82;80.72;;;;;;;;;;5130518;27;20027;-48
2021/01/12 13:55:21;;;;;;;167.07;86.97;;;;;;;;;;5118690;27;20042;-49
2021/01/12 13:57:53;;;;;;;195.05;101.10;;;;;;;;;;5117030;27;20098;-48
2021/01/12 14:00:19;;;;;;;;;;;;;;;;;;5132665;27;20031;-48
2021/01/12 14:02:45;;;;;;;150.27;73.75;;;;;;;;;;5134488;27;19908;-48
2021/01/12 14:05:11;;;;;;;161.82;85.97;;;;;;;;;;5117950;27;20102;-48